createdAt,value
2023-07-11T00:00:45.735Z,22.00
2023-07-11T00:03:31.921Z,22.00
2023-07-11T00:06:20.491Z,22.00
2023-07-11T00:09:07.086Z,22.00
2023-07-11T00:11:53.228Z,22.00
2023-07-11T00:14:39.731Z,22.00
2023-07-11T00:17:25.933Z,22.00
2023-07-11T00:20:16.069Z,22.00
2023-07-11T00:23:02.445Z,22.00
2023-07-11T00:25:49.291Z,22.00
2023-07-11T00:28:35.189Z,22.00
2023-07-11T00:31:21.872Z,22.00
2023-07-11T00:34:08.367Z,21.80
2023-07-11T00:36:55.135Z,21.70
2023-07-11T00:39:41.534Z,21.70
2023-07-11T00:42:27.887Z,21.60
2023-07-11T00:45:51.495Z,21.50
2023-07-11T00:48:42.484Z,21.40
2023-07-11T00:51:42.758Z,21.30
2023-07-11T00:54:33.277Z,21.40
2023-07-11T00:57:20.230Z,21.40
2023-07-11T01:00:07.366Z,21.50
2023-07-11T01:02:53.796Z,21.50
2023-07-11T01:05:41.104Z,21.60
2023-07-11T01:08:28.659Z,21.50
2023-07-11T01:11:14.921Z,21.50
2023-07-11T01:14:01.299Z,21.40
2023-07-11T01:16:47.694Z,21.20
2023-07-11T01:19:34.172Z,21.00
2023-07-11T01:22:20.512Z,21.00
2023-07-11T01:25:11.323Z,21.00
2023-07-11T01:27:57.701Z,20.90
2023-07-11T01:30:45.265Z,20.90
2023-07-11T01:33:34.109Z,20.80
2023-07-11T01:36:20.218Z,20.80
2023-07-11T01:39:10.902Z,20.90
2023-07-11T01:41:56.964Z,20.90
2023-07-11T01:44:43.054Z,20.90
2023-07-11T01:47:29.063Z,20.80
2023-07-11T01:50:15.402Z,20.80
2023-07-11T01:53:01.944Z,20.90
2023-07-11T01:55:59.047Z,20.90
2023-07-11T01:58:46.584Z,20.90
2023-07-11T02:01:33.065Z,21.00
2023-07-11T02:04:22.754Z,21.00
2023-07-11T02:07:09.259Z,20.90
2023-07-11T02:09:55.480Z,20.90
2023-07-11T02:12:41.474Z,20.80
2023-07-11T02:15:28.348Z,20.80
2023-07-11T02:18:14.669Z,20.70
2023-07-11T02:21:01.168Z,20.70
2023-07-11T02:23:47.559Z,20.70
2023-07-11T02:26:34.554Z,20.70
2023-07-11T02:29:20.674Z,20.70
2023-07-11T02:32:06.980Z,20.70
2023-07-11T02:34:53.008Z,20.60
2023-07-11T02:37:39.601Z,20.60
2023-07-11T02:40:25.788Z,20.50
2023-07-11T02:43:11.580Z,20.50
2023-07-11T02:45:58.262Z,20.50
2023-07-11T02:48:45.266Z,20.50
2023-07-11T02:51:31.502Z,20.50
2023-07-11T02:54:17.758Z,20.50
2023-07-11T02:57:13.111Z,20.50
2023-07-11T02:59:59.480Z,20.50
2023-07-11T03:02:45.366Z,20.50
2023-07-11T03:05:31.529Z,20.50
2023-07-11T03:08:18.255Z,20.40
2023-07-11T03:11:04.725Z,20.20
2023-07-11T03:13:51.031Z,20.00
2023-07-11T03:16:37.364Z,19.90
2023-07-11T03:19:24.067Z,19.90
2023-07-11T03:22:10.837Z,19.90
2023-07-11T03:24:56.879Z,19.90
2023-07-11T03:27:43.420Z,19.90
2023-07-11T03:30:31.467Z,20.00
2023-07-11T03:33:17.841Z,20.00
2023-07-11T03:36:04.347Z,20.10
2023-07-11T03:38:50.728Z,20.20
2023-07-11T03:41:37.411Z,20.20
2023-07-11T03:44:23.629Z,20.20
2023-07-11T03:47:10.061Z,20.20
2023-07-11T03:49:56.371Z,20.20
2023-07-11T03:52:42.184Z,20.20
2023-07-11T03:55:28.270Z,20.20
2023-07-11T03:58:14.279Z,20.20
2023-07-11T04:01:00.280Z,20.20
2023-07-11T04:03:46.905Z,20.20
2023-07-11T04:06:33.146Z,20.20
2023-07-11T04:09:19.159Z,20.20
2023-07-11T04:12:05.415Z,20.20
2023-07-11T04:14:51.243Z,20.10
2023-07-11T04:17:37.497Z,20.10
2023-07-11T04:20:24.184Z,20.10
2023-07-11T04:23:10.192Z,20.00
2023-07-11T04:25:56.366Z,20.00
2023-07-11T04:28:42.737Z,20.00
2023-07-11T04:31:28.816Z,20.00
2023-07-11T04:34:14.766Z,20.00
2023-07-11T04:37:00.646Z,20.10
2023-07-11T04:39:46.720Z,20.10
2023-07-11T04:42:33.188Z,20.20
2023-07-11T04:45:19.362Z,20.30
2023-07-11T04:48:05.714Z,20.40
2023-07-11T04:51:04.241Z,20.40
2023-07-11T04:53:50.552Z,20.50
2023-07-11T04:56:40.010Z,20.60
2023-07-11T04:59:27.093Z,20.60
2023-07-11T05:02:13.534Z,20.70
2023-07-11T05:04:59.910Z,20.80
2023-07-11T05:07:45.751Z,20.80
2023-07-11T05:10:31.690Z,20.90
2023-07-11T05:13:17.564Z,21.00
2023-07-11T05:16:06.680Z,21.10
2023-07-11T05:18:53.664Z,21.20
2023-07-11T05:21:40.121Z,21.30
2023-07-11T05:24:26.779Z,21.30
2023-07-11T05:27:12.780Z,21.40
2023-07-11T05:29:58.990Z,21.50
2023-07-11T05:32:45.115Z,21.50
2023-07-11T05:36:02.826Z,21.60
2023-07-11T05:38:49.614Z,21.60
2023-07-11T05:41:37.487Z,21.70
2023-07-11T05:44:23.860Z,21.70
2023-07-11T05:47:10.771Z,21.80
2023-07-11T05:49:56.827Z,21.80
2023-07-11T05:52:42.875Z,21.90
2023-07-11T05:55:28.935Z,22.00
2023-07-11T05:58:14.763Z,22.10
2023-07-11T06:01:01.865Z,22.20
2023-07-11T06:04:02.646Z,22.20
2023-07-11T06:06:50.523Z,22.30
2023-07-11T06:09:36.857Z,22.40
2023-07-11T06:12:23.655Z,22.40
2023-07-11T06:15:10.132Z,22.50
2023-07-11T06:17:56.211Z,22.60
2023-07-11T06:20:42.688Z,22.70
2023-07-11T06:23:29.106Z,22.80
2023-07-11T06:26:16.132Z,22.90
2023-07-11T06:29:02.138Z,23.00
2023-07-11T06:31:48.077Z,23.10
2023-07-11T06:34:34.046Z,23.20
2023-07-11T06:37:20.013Z,23.40
2023-07-11T06:40:09.977Z,23.50
2023-07-11T06:42:56.310Z,23.60
2023-07-11T06:45:42.250Z,23.80
2023-07-11T06:48:30.092Z,23.90
2023-07-11T06:51:16.143Z,24.00
2023-07-11T06:54:02.317Z,24.20
2023-07-11T06:56:48.297Z,24.20
2023-07-11T06:59:34.475Z,24.40
2023-07-11T07:02:20.514Z,24.60
2023-07-11T07:05:07.237Z,24.80
2023-07-11T07:08:05.103Z,25.00
2023-07-11T07:10:59.457Z,25.10
2023-07-11T07:13:52.104Z,25.30
2023-07-11T07:16:50.248Z,25.50
2023-07-11T07:19:36.143Z,25.60
2023-07-11T07:22:21.941Z,25.80
2023-07-11T07:25:23.747Z,26.00
2023-07-11T07:28:11.321Z,26.10
2023-07-11T07:30:58.969Z,26.40
2023-07-11T07:33:45.434Z,26.50
2023-07-11T07:36:31.714Z,26.60
2023-07-11T07:39:17.610Z,26.70
2023-07-11T07:42:03.886Z,26.90
2023-07-11T07:44:52.239Z,27.00
2023-07-11T07:47:38.028Z,27.10
2023-07-11T07:50:24.598Z,27.20
2023-07-11T07:53:10.637Z,27.30
2023-07-11T07:56:01.859Z,27.30
2023-07-11T07:58:48.798Z,27.30
2023-07-11T08:01:34.866Z,27.30
2023-07-11T08:04:20.795Z,27.40
2023-07-11T08:07:07.161Z,27.40
2023-07-11T08:09:57.343Z,27.40
2023-07-11T08:12:44.383Z,27.50
2023-07-11T08:15:30.496Z,27.50
2023-07-11T08:18:16.529Z,27.60
2023-07-11T08:21:03.253Z,27.60
2023-07-11T08:23:49.476Z,27.70
2023-07-11T08:26:35.429Z,27.80
2023-07-11T08:29:29.720Z,27.90
2023-07-11T08:32:18.998Z,28.00
2023-07-11T08:35:06.541Z,28.10
2023-07-11T08:37:52.394Z,28.30
2023-07-11T08:40:48.559Z,28.50
2023-07-11T08:43:36.171Z,28.60
2023-07-11T08:46:23.688Z,28.80
2023-07-11T08:49:18.686Z,28.80
2023-07-11T08:52:08.193Z,28.90
2023-07-11T08:55:01.594Z,29.00
2023-07-11T08:57:53.604Z,29.10
2023-07-11T09:00:40.938Z,29.30
2023-07-11T09:03:45.817Z,29.40
2023-07-11T09:06:37.965Z,29.30
2023-07-11T09:09:25.276Z,29.30
2023-07-11T09:12:46.072Z,29.40
2023-07-11T09:15:53.871Z,29.60
2023-07-11T09:18:58.804Z,29.70
2023-07-11T09:21:59.997Z,29.60
2023-07-11T09:25:28.242Z,29.70
2023-07-11T09:28:27.880Z,30.00
2023-07-11T09:31:20.451Z,30.10
2023-07-11T09:34:19.314Z,30.30
2023-07-11T09:37:29.053Z,30.50
2023-07-11T09:40:42.069Z,30.70
2023-07-11T09:43:28.164Z,30.90
2023-07-11T09:46:22.169Z,30.90
2023-07-11T09:49:17.711Z,31.00
2023-07-11T09:52:04.695Z,31.30
2023-07-11T09:55:03.217Z,31.50
2023-07-11T09:57:53.630Z,31.80
2023-07-11T10:00:44.275Z,32.00
2023-07-11T10:03:35.629Z,32.20
2023-07-11T10:06:52.636Z,32.40
2023-07-11T10:09:45.726Z,32.60
2023-07-11T10:12:31.881Z,32.90
2023-07-11T10:15:17.994Z,33.10
2023-07-11T10:18:04.291Z,33.00
2023-07-11T10:20:56.319Z,33.00
2023-07-11T10:23:49.148Z,33.00
2023-07-11T10:26:39.593Z,32.80
2023-07-11T10:29:29.971Z,32.80
2023-07-11T10:32:32.765Z,32.90
2023-07-11T10:35:21.830Z,33.20
2023-07-11T10:38:21.114Z,33.50
2023-07-11T10:41:14.557Z,33.70
2023-07-11T10:44:03.604Z,33.90
2023-07-11T10:46:54.359Z,34.10
2023-07-11T10:49:48.241Z,34.20
2023-07-11T10:52:36.793Z,34.20
2023-07-11T10:55:30.990Z,34.10
2023-07-11T10:58:21.887Z,34.40
2023-07-11T11:01:33.367Z,34.70
2023-07-11T11:04:34.623Z,34.80
2023-07-11T11:07:38.118Z,34.80
2023-07-11T11:11:08.152Z,34.90
2023-07-11T11:14:13.774Z,35.20
2023-07-11T11:17:46.171Z,35.40
2023-07-11T11:21:06.635Z,35.30
2023-07-11T11:24:23.777Z,35.00
2023-07-11T11:27:28.642Z,34.70
2023-07-11T11:30:17.819Z,35.00
2023-07-11T11:33:25.689Z,35.20
2023-07-11T11:36:37.640Z,35.50
2023-07-11T11:39:50.733Z,35.80
2023-07-11T11:42:39.171Z,35.70
2023-07-11T11:51:14.419Z,35.50
2023-07-11T11:54:21.800Z,35.40
2023-07-11T11:57:11.707Z,35.60
2023-07-11T11:59:58.499Z,35.80
2023-07-11T12:02:49.831Z,36.20
2023-07-11T12:05:37.191Z,36.40
2023-07-11T12:08:26.499Z,36.60
2023-07-11T12:11:12.211Z,36.80
2023-07-11T12:14:26.197Z,37.10
2023-07-11T12:17:32.780Z,37.10
2023-07-11T12:20:29.014Z,37.20
2023-07-11T12:23:27.691Z,37.10
2023-07-11T12:26:26.478Z,36.80
2023-07-11T12:29:52.475Z,36.40
2023-07-11T12:32:50.281Z,36.50
2023-07-11T12:35:37.402Z,36.50
2023-07-11T12:38:56.401Z,36.50
2023-07-11T12:41:54.848Z,36.20
2023-07-11T12:44:41.222Z,36.20
2023-07-11T12:47:29.710Z,36.50
2023-07-11T12:50:33.436Z,36.80
2023-07-11T12:53:20.233Z,37.10
2023-07-11T12:56:14.300Z,37.30
2023-07-11T12:59:01.306Z,37.40
2023-07-11T13:01:50.480Z,37.30
2023-07-11T13:04:46.780Z,37.40
2023-07-11T13:07:36.988Z,37.40
2023-07-11T13:10:25.585Z,37.40
2023-07-11T13:13:13.059Z,37.40
2023-07-11T13:16:04.446Z,37.50
2023-07-11T13:18:52.291Z,37.50
2023-07-11T13:21:38.603Z,37.60
2023-07-11T13:24:28.379Z,37.60
2023-07-11T13:27:26.677Z,37.50
2023-07-11T13:30:25.367Z,37.50
2023-07-11T13:36:34.699Z,37.40
2023-07-11T13:39:28.001Z,37.40
2023-07-11T13:42:14.846Z,37.30
2023-07-11T13:45:19.789Z,37.40
2023-07-11T13:48:06.199Z,37.40
2023-07-11T13:51:17.569Z,37.50
2023-07-11T13:54:37.886Z,37.50
2023-07-11T13:57:24.393Z,37.40
2023-07-11T14:00:14.539Z,37.10
2023-07-11T14:03:01.383Z,36.90
2023-07-11T14:05:52.883Z,36.80
2023-07-11T14:08:42.508Z,36.70
2023-07-11T14:11:30.076Z,36.40
2023-07-11T14:14:33.486Z,36.30
2023-07-11T14:17:25.470Z,36.20
2023-07-11T14:20:18.728Z,36.20
2023-07-11T14:23:18.138Z,36.10
2023-07-11T14:26:04.884Z,36.10
2023-07-11T14:28:53.002Z,36.10
2023-07-11T14:31:39.201Z,36.10
2023-07-11T14:34:27.493Z,36.10
2023-07-11T14:37:15.779Z,36.10
2023-07-11T14:40:01.788Z,36.10
2023-07-11T14:42:48.765Z,36.00
2023-07-11T14:45:35.755Z,36.00
2023-07-11T14:48:24.283Z,36.00
2023-07-11T14:51:11.497Z,35.80
2023-07-11T14:53:59.766Z,35.70
2023-07-11T14:59:37.352Z,35.60
2023-07-11T15:02:30.151Z,35.60
2023-07-11T15:11:19.129Z,35.30
2023-07-11T15:17:24.900Z,35.10
2023-07-11T15:20:15.430Z,35.10
2023-07-11T15:23:02.163Z,35.10
2023-07-11T15:25:48.811Z,35.10
2023-07-11T15:28:35.858Z,35.10
2023-07-11T15:31:22.208Z,35.20
2023-07-11T15:34:23.642Z,35.40
2023-07-11T15:37:11.289Z,35.40
2023-07-11T15:39:57.482Z,35.50
2023-07-11T15:42:43.576Z,35.50
2023-07-11T15:45:32.076Z,35.60
2023-07-11T15:48:18.405Z,35.70
2023-07-11T15:51:04.824Z,35.60
2023-07-11T15:53:51.369Z,35.50
2023-07-11T15:56:40.810Z,35.50
2023-07-11T15:59:28.971Z,35.50
2023-07-11T16:02:24.072Z,35.40
2023-07-11T16:05:13.059Z,35.40
2023-07-11T16:07:59.589Z,35.30
2023-07-11T16:10:47.921Z,35.30
2023-07-11T16:13:33.879Z,35.20
2023-07-11T16:16:27.282Z,35.20
2023-07-11T16:19:19.188Z,35.10
2023-07-11T16:22:05.477Z,35.10
2023-07-11T16:24:51.559Z,35.00
2023-07-11T16:27:41.846Z,35.00
2023-07-11T16:30:30.756Z,34.90
2023-07-11T16:33:20.383Z,34.90
2023-07-11T16:36:13.696Z,34.80
2023-07-11T16:39:00.097Z,34.80
2023-07-11T16:41:47.939Z,34.80
2023-07-11T16:44:34.099Z,34.70
2023-07-11T16:47:20.260Z,34.70
2023-07-11T16:50:22.829Z,34.70
2023-07-11T16:53:18.781Z,34.80
2023-07-11T16:56:05.948Z,34.70
2023-07-11T16:58:52.680Z,34.80
2023-07-11T17:01:38.657Z,34.80
2023-07-11T17:04:25.206Z,34.80
2023-07-11T17:07:14.183Z,34.70
2023-07-11T17:10:00.196Z,34.60
2023-07-11T17:12:46.559Z,34.50
2023-07-11T17:15:32.672Z,34.40
2023-07-11T17:18:22.945Z,34.40
2023-07-11T17:21:11.420Z,34.40
2023-07-11T17:23:57.633Z,34.30
2023-07-11T17:26:43.867Z,34.30
2023-07-11T17:29:35.437Z,34.20
2023-07-11T17:32:24.610Z,34.10
2023-07-11T17:35:11.649Z,34.10
2023-07-11T17:37:57.954Z,34.00
2023-07-11T17:40:44.647Z,34.00
2023-07-11T17:43:32.016Z,33.90
2023-07-11T17:49:10.082Z,33.80
2023-07-11T17:51:56.227Z,33.80
2023-07-11T17:54:42.877Z,33.70
2023-07-11T17:57:37.511Z,33.60
2023-07-11T18:00:23.918Z,33.60
2023-07-11T18:03:09.895Z,33.50
2023-07-11T18:05:57.264Z,33.40
2023-07-11T18:08:43.608Z,33.30
2023-07-11T18:11:29.594Z,33.20
2023-07-11T18:14:15.745Z,33.10
2023-07-11T18:17:01.594Z,33.10
2023-07-11T18:19:48.480Z,33.00
2023-07-11T18:22:35.135Z,32.90
2023-07-11T18:25:21.393Z,32.90
2023-07-11T18:28:18.653Z,32.80
2023-07-11T18:31:04.667Z,32.70
2023-07-11T18:33:51.870Z,32.60
2023-07-11T18:36:38.148Z,32.50
2023-07-11T18:39:24.141Z,32.50
2023-07-11T18:42:28.755Z,32.40
2023-07-11T18:45:14.857Z,32.30
2023-07-11T18:48:00.826Z,32.20
2023-07-11T18:50:47.559Z,32.10
2023-07-11T18:53:34.104Z,31.90
2023-07-11T18:56:22.703Z,31.70
2023-07-11T18:59:10.246Z,31.60
2023-07-11T19:01:56.805Z,31.50
2023-07-11T19:04:44.409Z,31.30
2023-07-11T19:07:33.486Z,31.20
2023-07-11T19:10:31.071Z,31.10
2023-07-11T19:13:17.537Z,31.00
2023-07-11T19:16:03.963Z,30.80
2023-07-11T19:18:50.346Z,30.60
2023-07-11T19:21:37.974Z,30.40
2023-07-11T19:24:24.636Z,30.30
2023-07-11T19:27:12.417Z,30.20
2023-07-11T19:29:58.766Z,30.10
2023-07-11T19:32:46.239Z,29.90
2023-07-11T19:35:34.370Z,29.80
2023-07-11T19:38:26.037Z,29.70
2023-07-11T19:41:13.173Z,29.50
2023-07-11T19:44:00.987Z,29.40
2023-07-11T19:46:47.062Z,29.40
2023-07-11T19:49:33.616Z,29.20
2023-07-11T19:52:20.012Z,29.00
2023-07-11T19:55:06.444Z,28.90
2023-07-11T19:57:52.970Z,28.90
2023-07-11T20:00:39.593Z,28.80
2023-07-11T20:03:32.659Z,28.70
2023-07-11T20:06:23.183Z,28.60
2023-07-11T20:09:10.216Z,28.50
2023-07-11T20:11:56.432Z,28.30
2023-07-11T20:14:42.304Z,28.10
2023-07-11T20:17:28.368Z,28.00
2023-07-11T20:20:23.227Z,27.90
2023-07-11T20:23:09.653Z,27.80
2023-07-11T20:26:12.295Z,27.80
2023-07-11T20:28:58.867Z,27.80
2023-07-11T20:31:44.909Z,27.90
2023-07-11T20:34:30.756Z,27.90
2023-07-11T20:37:18.674Z,27.80
2023-07-11T20:40:16.618Z,27.90
2023-07-11T20:43:02.807Z,27.90
2023-07-11T20:45:50.271Z,27.90
2023-07-11T20:48:39.124Z,27.90
2023-07-11T20:51:25.211Z,28.00
2023-07-11T20:54:11.520Z,28.00
2023-07-11T20:56:57.460Z,28.00
2023-07-11T20:59:43.356Z,28.00
2023-07-11T21:02:29.496Z,28.00
2023-07-11T21:05:17.700Z,28.10
2023-07-11T21:08:05.051Z,28.00
2023-07-11T21:10:52.041Z,28.00
2023-07-11T21:13:38.184Z,28.00
2023-07-11T21:16:28.102Z,28.10
2023-07-11T21:19:23.375Z,28.20
2023-07-11T21:22:12.472Z,28.30
2023-07-11T21:24:58.916Z,28.40
2023-07-11T21:27:45.340Z,28.40
2023-07-11T21:30:43.976Z,28.50
2023-07-11T21:33:32.546Z,28.50
2023-07-11T21:36:25.486Z,28.50
2023-07-11T21:39:16.759Z,28.50
2023-07-11T21:42:02.856Z,28.50
2023-07-11T21:44:48.835Z,28.50
2023-07-11T21:47:34.808Z,28.50
2023-07-11T21:50:21.295Z,27.60
2023-07-11T21:53:12.132Z,25.20
2023-07-11T21:56:13.551Z,23.90
2023-07-11T21:59:02.643Z,21.90
2023-07-11T22:01:49.790Z,20.50
2023-07-11T22:04:36.008Z,19.60
2023-07-11T22:07:22.184Z,19.10
2023-07-11T22:10:37.070Z,18.90
2023-07-11T22:13:25.404Z,18.90
2023-07-11T22:16:16.805Z,18.90
2023-07-11T22:19:03.555Z,19.00
2023-07-11T22:21:53.628Z,19.10
2023-07-11T22:24:43.391Z,19.20
2023-07-11T22:27:29.393Z,19.30
2023-07-11T22:30:21.982Z,19.30
2023-07-11T22:33:09.985Z,19.40
2023-07-11T22:35:56.181Z,19.40
2023-07-11T22:38:42.258Z,19.40
2023-07-11T22:41:28.626Z,19.50
2023-07-11T22:44:14.674Z,19.50
2023-07-11T22:47:00.789Z,19.50
2023-07-11T22:49:47.295Z,19.50
2023-07-11T22:52:33.016Z,19.50
2023-07-11T22:55:21.413Z,19.50
2023-07-11T22:58:21.353Z,19.60
2023-07-11T23:01:13.281Z,19.60
2023-07-11T23:03:59.624Z,19.60
2023-07-11T23:06:45.572Z,19.60
2023-07-11T23:09:32.706Z,19.70
2023-07-11T23:12:18.924Z,19.60
2023-07-11T23:15:05.909Z,19.40
2023-07-11T23:17:52.954Z,19.30
2023-07-11T23:20:46.308Z,19.20
2023-07-11T23:23:33.427Z,19.10
2023-07-11T23:26:19.702Z,19.00
2023-07-11T23:29:06.190Z,19.00
2023-07-11T23:31:52.216Z,19.00
2023-07-11T23:34:38.385Z,19.00
2023-07-11T23:37:24.998Z,19.00
2023-07-11T23:40:32.668Z,19.00
2023-07-11T23:43:36.031Z,19.00
2023-07-11T23:46:27.926Z,19.00
2023-07-11T23:49:14.566Z,19.10
2023-07-11T23:52:00.607Z,19.20
2023-07-11T23:54:46.524Z,19.30
2023-07-11T23:57:32.590Z,19.50
